createdAt,value
2023-01-30T00:00:47.254Z,89.55
2023-01-30T00:06:01.248Z,89.38
2023-01-30T00:11:13.162Z,89.23
2023-01-30T00:16:20.143Z,89.18
2023-01-30T00:21:27.291Z,89.00
2023-01-30T00:26:35.444Z,89.35
2023-01-30T00:31:42.059Z,89.37
2023-01-30T00:37:02.447Z,89.47
2023-01-30T00:42:28.830Z,89.26
2023-01-30T00:47:35.695Z,89.28
2023-01-30T00:52:42.236Z,89.36
2023-01-30T00:57:50.711Z,89.32
2023-01-30T01:02:59.223Z,89.29
2023-01-30T01:08:06.527Z,89.00
2023-01-30T01:13:14.628Z,88.93
2023-01-30T01:18:21.211Z,88.98
2023-01-30T01:23:27.628Z,88.72
2023-01-30T01:28:38.208Z,88.89
2023-01-30T01:33:44.899Z,88.55
2023-01-30T01:38:51.428Z,88.83
2023-01-30T01:44:08.753Z,88.54
2023-01-30T01:49:22.713Z,88.58
2023-01-30T01:54:35.847Z,88.41
2023-01-30T01:59:48.343Z,88.49
2023-01-30T02:05:07.125Z,88.40
2023-01-30T02:10:20.333Z,88.22
2023-01-30T02:15:28.839Z,88.06
2023-01-30T02:20:57.517Z,87.99
2023-01-30T02:26:55.609Z,87.75
2023-01-30T02:32:13.465Z,87.62
2023-01-30T02:37:39.807Z,87.52
2023-01-30T02:42:54.119Z,87.32
2023-01-30T02:48:08.132Z,87.40
2023-01-30T02:53:14.990Z,87.29
2023-01-30T02:58:26.017Z,87.17
2023-01-30T03:04:11.106Z,87.02
2023-01-30T03:09:29.125Z,87.11
2023-01-30T03:14:46.372Z,86.95
2023-01-30T03:19:56.784Z,86.89
2023-01-30T03:25:03.811Z,86.76
2023-01-30T03:30:12.778Z,86.43
2023-01-30T03:35:21.987Z,86.63
2023-01-30T03:40:30.652Z,86.51
2023-01-30T03:45:38.423Z,86.48
2023-01-30T03:50:46.428Z,86.48
2023-01-30T03:55:52.855Z,86.53
2023-01-30T04:01:05.146Z,86.22
2023-01-30T04:06:14.881Z,86.30
2023-01-30T04:11:22.244Z,86.20
2023-01-30T04:16:29.317Z,86.14
2023-01-30T04:21:57.493Z,86.06
2023-01-30T04:27:05.704Z,86.22
2023-01-30T04:32:17.791Z,86.09
2023-01-30T04:37:26.933Z,86.05
2023-01-30T04:42:33.658Z,86.30
2023-01-30T04:47:58.432Z,86.26
2023-01-30T04:53:06.933Z,86.08
2023-01-30T04:58:13.748Z,86.05
2023-01-30T05:03:20.590Z,86.27
2023-01-30T05:08:28.404Z,86.20
2023-01-30T05:13:34.888Z,86.18
2023-01-30T05:18:41.411Z,86.04
2023-01-30T05:23:49.499Z,86.10
2023-01-30T05:28:58.194Z,86.10
2023-01-30T05:34:04.578Z,85.93
2023-01-30T05:39:12.944Z,86.12
2023-01-30T05:44:19.596Z,85.82
2023-01-30T05:49:26.448Z,86.24
2023-01-30T05:54:35.991Z,86.12
2023-01-30T05:59:42.816Z,86.16
2023-01-30T06:04:49.883Z,85.98
2023-01-30T06:09:58.007Z,86.00
2023-01-30T06:15:04.722Z,86.06
2023-01-30T06:20:13.748Z,85.80
2023-01-30T06:25:21.813Z,85.95
2023-01-30T06:30:28.615Z,85.81
2023-01-30T06:35:35.880Z,85.39
2023-01-30T06:40:47.111Z,85.40
2023-01-30T06:45:54.731Z,85.45
2023-01-30T06:51:01.222Z,85.54
2023-01-30T06:56:09.722Z,85.50
2023-01-30T07:01:17.321Z,85.72
2023-01-30T07:06:23.824Z,85.71
2023-01-30T07:11:32.854Z,86.08
2023-01-30T07:16:38.878Z,85.97
2023-01-30T07:21:45.234Z,86.85
2023-01-30T07:26:54.271Z,87.05
2023-01-30T07:32:01.037Z,87.59
2023-01-30T07:37:07.651Z,87.17
2023-01-30T07:42:16.717Z,87.62
2023-01-30T07:47:22.735Z,87.20
2023-01-30T07:52:29.164Z,87.52
2023-01-30T07:57:37.111Z,87.33
2023-01-30T08:02:43.776Z,87.61
2023-01-30T08:07:50.358Z,87.74
2023-01-30T08:12:58.293Z,87.48
2023-01-30T08:18:04.790Z,87.63
2023-01-30T08:23:12.237Z,87.46
2023-01-30T08:28:20.216Z,87.65
2023-01-30T08:33:27.493Z,87.91
2023-01-30T08:38:35.012Z,87.84
2023-01-30T08:43:42.896Z,87.80
2023-01-30T08:48:50.473Z,87.89
2023-01-30T08:53:57.039Z,87.94
2023-01-30T08:59:05.317Z,87.62
2023-01-30T09:04:12.055Z,87.75
2023-01-30T09:09:18.629Z,87.47
2023-01-30T09:14:26.835Z,87.42
2023-01-30T09:19:33.335Z,87.61
2023-01-30T09:24:39.942Z,87.70
2023-01-30T09:29:47.947Z,87.68
2023-01-30T09:34:54.320Z,87.88
2023-01-30T09:40:00.850Z,87.50
2023-01-30T09:45:55.597Z,87.92
2023-01-30T09:51:27.708Z,88.28
2023-01-30T09:56:34.505Z,88.07
2023-01-30T10:01:53.242Z,88.15
2023-01-30T10:07:06.614Z,87.83
2023-01-30T10:12:37.610Z,88.12
2023-01-30T10:18:04.635Z,88.25
2023-01-30T10:23:47.926Z,88.60
2023-01-30T10:29:07.822Z,88.18
2023-01-30T10:34:21.061Z,88.23
2023-01-30T10:39:49.682Z,88.22
2023-01-30T10:45:13.995Z,88.48
2023-01-30T10:50:28.804Z,88.68
2023-01-30T10:55:41.518Z,88.73
2023-01-30T11:00:56.445Z,88.45
2023-01-30T11:06:10.205Z,88.61
2023-01-30T11:11:31.362Z,88.75
2023-01-30T11:16:46.195Z,88.84
2023-01-30T11:21:56.717Z,88.96
2023-01-30T11:27:18.079Z,88.77
2023-01-30T11:32:29.968Z,89.36
2023-01-30T11:37:40.147Z,89.21
2023-01-30T11:42:47.876Z,88.99
2023-01-30T11:48:05.049Z,88.96
2023-01-30T11:53:39.005Z,89.10
2023-01-30T11:58:49.053Z,89.46
2023-01-30T12:03:58.436Z,89.43
2023-01-30T12:09:09.626Z,89.37
2023-01-30T12:14:28.964Z,89.61
2023-01-30T12:19:54.457Z,89.23
2023-01-30T12:25:05.598Z,89.40
2023-01-30T12:30:26.236Z,89.25
2023-01-30T12:35:51.195Z,89.52
2023-01-30T12:41:14.104Z,89.71
2023-01-30T12:46:41.797Z,89.68
2023-01-30T12:52:09.781Z,89.82
2023-01-30T12:57:28.074Z,89.69
2023-01-30T13:02:56.364Z,90.07
2023-01-30T13:08:23.510Z,90.10
2023-01-30T13:13:43.291Z,90.06
2023-01-30T13:18:56.910Z,89.58
2023-01-30T13:24:20.816Z,90.16
2023-01-30T13:29:34.870Z,90.67
2023-01-30T13:34:44.825Z,90.25
2023-01-30T13:39:56.550Z,90.38
2023-01-30T13:45:06.693Z,90.91
2023-01-30T13:50:43.540Z,90.90
2023-01-30T13:55:58.671Z,90.75
2023-01-30T14:01:07.925Z,90.90
2023-01-30T14:06:38.852Z,90.96
2023-01-30T14:11:51.297Z,91.13
2023-01-30T14:17:12.999Z,91.13
2023-01-30T14:22:28.409Z,91.19
2023-01-30T14:27:34.920Z,91.29
2023-01-30T14:32:57.307Z,91.34
2023-01-30T14:38:21.723Z,91.37
2023-01-30T14:43:40.587Z,91.56
2023-01-30T14:48:53.751Z,91.32
2023-01-30T14:54:03.506Z,91.63
2023-01-30T14:59:22.086Z,91.29
2023-01-30T15:04:35.457Z,91.01
2023-01-30T15:09:47.374Z,91.17
2023-01-30T15:15:09.252Z,91.29
2023-01-30T15:20:43.376Z,91.32
2023-01-30T15:26:18.770Z,91.14
2023-01-30T15:31:26.772Z,91.15
2023-01-30T15:36:37.541Z,91.24
2023-01-30T15:41:44.645Z,90.85
2023-01-30T15:47:01.420Z,91.18
2023-01-30T15:52:17.079Z,91.50
2023-01-30T15:57:29.627Z,91.20
2023-01-30T16:02:38.269Z,91.19
2023-01-30T16:07:49.036Z,91.28
2023-01-30T16:12:58.562Z,91.17
2023-01-30T16:18:15.090Z,91.06
2023-01-30T16:23:30.562Z,91.23
2023-01-30T16:28:38.405Z,91.32
2023-01-30T16:33:51.599Z,91.31
2023-01-30T16:39:01.420Z,91.28
2023-01-30T16:44:21.277Z,91.22
2023-01-30T16:49:46.816Z,91.42
2023-01-30T16:55:00.586Z,91.50
2023-01-30T17:00:22.535Z,91.34
2023-01-30T17:05:32.925Z,91.51
2023-01-30T17:11:00.825Z,91.55
2023-01-30T17:16:35.820Z,91.35
2023-01-30T17:21:50.509Z,91.38
2023-01-30T17:27:07.899Z,91.47
2023-01-30T17:32:18.017Z,91.41
2023-01-30T17:37:26.802Z,91.35
2023-01-30T17:42:35.996Z,91.45
2023-01-30T17:47:43.982Z,91.43
2023-01-30T17:52:52.309Z,91.27
2023-01-30T17:58:01.245Z,91.37
2023-01-30T18:03:09.154Z,91.58
2023-01-30T18:08:18.355Z,91.54
2023-01-30T18:13:27.751Z,91.45
2023-01-30T18:18:36.939Z,91.38
2023-01-30T18:23:45.412Z,91.53
2023-01-30T18:28:56.402Z,91.65
2023-01-30T18:34:05.710Z,91.46
2023-01-30T18:39:15.453Z,91.23
2023-01-30T18:44:26.067Z,91.20
2023-01-30T18:49:34.474Z,91.31
2023-01-30T18:54:44.111Z,91.28
2023-01-30T18:59:53.086Z,91.45
2023-01-30T19:05:02.524Z,91.50
2023-01-30T19:10:17.997Z,91.37
2023-01-30T19:15:32.022Z,91.38
2023-01-30T19:20:41.040Z,91.65
2023-01-30T19:26:01.319Z,91.83
2023-01-30T19:31:14.452Z,91.85
2023-01-30T19:36:25.851Z,92.08
2023-01-30T19:41:53.100Z,91.72
2023-01-30T19:47:07.541Z,91.88
2023-01-30T19:52:17.984Z,92.07
2023-01-30T19:57:28.083Z,92.03
2023-01-30T20:02:39.238Z,92.11
2023-01-30T20:07:49.863Z,92.05
2023-01-30T20:12:59.313Z,91.97
2023-01-30T20:18:10.281Z,92.03
2023-01-30T20:23:20.072Z,92.19
2023-01-30T20:28:28.677Z,91.95
2023-01-30T20:33:39.749Z,91.99
2023-01-30T20:38:50.597Z,92.13
2023-01-30T20:44:01.632Z,91.78
2023-01-30T20:49:17.526Z,92.11
2023-01-30T20:54:29.103Z,92.21
2023-01-30T20:59:38.350Z,92.44
2023-01-30T21:04:49.158Z,92.34
2023-01-30T21:09:57.711Z,92.22
2023-01-30T21:15:09.484Z,92.18
2023-01-30T21:20:19.511Z,92.37
2023-01-30T21:25:27.129Z,92.31
2023-01-30T21:30:33.896Z,92.31
2023-01-30T21:35:45.757Z,92.18
2023-01-30T21:41:11.550Z,92.25
2023-01-30T21:46:18.860Z,92.00
2023-01-30T21:51:27.569Z,91.96
2023-01-30T21:56:35.133Z,92.18
2023-01-30T22:01:42.868Z,92.05
2023-01-30T22:06:50.950Z,92.19
2023-01-30T22:11:57.472Z,91.94
2023-01-30T22:17:03.959Z,91.94
2023-01-30T22:22:11.803Z,92.11
2023-01-30T22:27:18.315Z,91.77
2023-01-30T22:32:24.987Z,92.04
2023-01-30T22:37:33.071Z,91.95
2023-01-30T22:42:39.660Z,92.17
2023-01-30T22:47:46.257Z,91.96
2023-01-30T22:52:55.953Z,91.97
2023-01-30T22:58:02.360Z,91.97
2023-01-30T23:03:08.807Z,91.86
2023-01-30T23:08:16.731Z,92.34
2023-01-30T23:13:23.104Z,91.89
2023-01-30T23:18:46.455Z,92.05
2023-01-30T23:23:57.379Z,91.85
2023-01-30T23:29:05.072Z,91.79
2023-01-30T23:34:16.818Z,91.85
2023-01-30T23:39:24.730Z,91.59
2023-01-30T23:44:31.213Z,91.64
2023-01-30T23:49:37.841Z,91.54
2023-01-30T23:54:46.224Z,91.63
2023-01-30T23:59:52.412Z,91.73
